createdAt,value
2019-03-27T00:00:09.469Z,10.57
2019-03-27T00:02:38.093Z,4.90
2019-03-27T00:05:06.909Z,5.27
2019-03-27T00:07:35.566Z,6.37
2019-03-27T00:10:08.278Z,5.27
2019-03-27T00:12:37.199Z,7.50
2019-03-27T00:15:13.304Z,6.77
2019-03-27T00:17:39.100Z,5.53
2019-03-27T00:20:11.339Z,5.07
2019-03-27T00:22:40.080Z,6.83
2019-03-27T00:25:09.600Z,5.07
2019-03-27T00:27:38.212Z,4.83
2019-03-27T00:30:09.094Z,5.63
2019-03-27T00:32:37.715Z,6.87
2019-03-27T00:35:07.627Z,4.77
2019-03-27T00:37:36.290Z,4.00
2019-03-27T00:40:07.604Z,8.77
2019-03-27T00:42:36.218Z,3.97
2019-03-27T00:45:07.145Z,6.73
2019-03-27T00:47:35.755Z,6.57
2019-03-27T00:50:07.947Z,5.40
2019-03-27T00:52:36.593Z,5.80
2019-03-27T00:55:07.203Z,4.30
2019-03-27T00:57:35.829Z,4.83
2019-03-27T01:00:13.085Z,4.13
2019-03-27T01:02:41.698Z,5.70
2019-03-27T01:05:10.381Z,3.30
2019-03-27T01:07:39.039Z,11.27
2019-03-27T01:10:07.653Z,5.30
2019-03-27T01:12:36.284Z,15.23
2019-03-27T01:15:07.338Z,4.70
2019-03-27T01:17:35.963Z,4.17
2019-03-27T01:20:05.683Z,5.47
2019-03-27T01:22:34.328Z,4.33
2019-03-27T01:25:02.950Z,6.27
2019-03-27T01:27:31.561Z,4.57
2019-03-27T01:30:00.350Z,5.37
2019-03-27T01:32:28.938Z,5.70
2019-03-27T01:34:57.568Z,6.50
2019-03-27T01:37:26.164Z,4.40
2019-03-27T01:39:54.709Z,5.80
2019-03-27T01:42:23.326Z,3.47
2019-03-27T01:44:51.975Z,8.13
2019-03-27T01:47:20.597Z,5.80
2019-03-27T01:49:49.223Z,4.10
2019-03-27T01:52:17.881Z,9.60
2019-03-27T01:54:46.491Z,5.00
2019-03-27T01:57:15.105Z,3.67
2019-03-27T01:59:43.683Z,5.90
2019-03-27T02:02:12.302Z,3.83
2019-03-27T02:04:40.930Z,5.83
2019-03-27T02:07:09.579Z,4.67
2019-03-27T02:09:38.201Z,5.30
2019-03-27T02:12:06.829Z,4.37
2019-03-27T02:14:35.478Z,5.53
2019-03-27T02:17:04.097Z,4.27
2019-03-27T02:19:32.724Z,6.20
2019-03-27T02:22:01.372Z,5.20
2019-03-27T02:24:29.988Z,7.13
2019-03-27T02:26:58.823Z,5.30
2019-03-27T02:29:27.489Z,11.50
2019-03-27T02:31:56.115Z,4.30
2019-03-27T02:34:24.752Z,4.03
2019-03-27T02:36:53.343Z,4.30
2019-03-27T02:39:21.961Z,3.37
2019-03-27T02:41:50.586Z,4.87
2019-03-27T02:44:19.253Z,5.37
2019-03-27T02:46:47.807Z,10.17
2019-03-27T02:49:16.423Z,6.80
2019-03-27T02:51:45.089Z,10.17
2019-03-27T02:54:13.703Z,4.37
2019-03-27T02:56:42.260Z,6.03
2019-03-27T02:59:10.920Z,4.97
2019-03-27T03:01:39.546Z,7.30
2019-03-27T03:04:08.090Z,4.47
2019-03-27T03:06:36.747Z,6.20
2019-03-27T03:09:06.643Z,4.03
2019-03-27T03:11:35.250Z,5.80
2019-03-27T03:14:04.016Z,4.67
2019-03-27T03:16:42.233Z,5.20
2019-03-27T03:19:02.981Z,5.90
2019-03-27T03:21:31.559Z,6.30
2019-03-27T03:24:00.191Z,13.47
2019-03-27T03:26:28.807Z,5.00
2019-03-27T03:28:57.456Z,7.60
2019-03-27T03:31:26.011Z,5.47
2019-03-27T03:33:54.544Z,6.67
2019-03-27T03:36:23.204Z,5.47
2019-03-27T03:38:51.823Z,7.50
2019-03-27T03:41:20.444Z,4.97
2019-03-27T03:43:49.097Z,5.03
2019-03-27T03:46:18.131Z,4.03
2019-03-27T03:48:46.738Z,7.97
2019-03-27T03:51:15.787Z,6.73
2019-03-27T03:53:45.302Z,4.63
2019-03-27T03:56:15.735Z,11.13
2019-03-27T03:58:44.601Z,5.83
2019-03-27T04:01:14.865Z,5.10
2019-03-27T04:03:44.794Z,7.20
2019-03-27T04:06:13.455Z,4.60
2019-03-27T04:08:42.070Z,9.23
2019-03-27T04:11:10.683Z,6.27
2019-03-27T04:13:39.410Z,8.17
2019-03-27T04:16:08.044Z,7.17
2019-03-27T04:18:36.653Z,5.27
2019-03-27T04:21:05.320Z,6.97
2019-03-27T04:23:33.864Z,5.27
2019-03-27T04:26:09.511Z,8.10
2019-03-27T04:28:32.840Z,7.10
2019-03-27T04:31:01.461Z,5.00
2019-03-27T04:33:30.003Z,5.10
2019-03-27T04:35:58.661Z,11.23
2019-03-27T04:38:27.219Z,10.13
2019-03-27T04:40:55.847Z,9.37
2019-03-27T04:43:24.435Z,13.90
2019-03-27T04:45:53.066Z,14.50
2019-03-27T04:48:21.692Z,13.03
2019-03-27T04:50:50.336Z,5.97
2019-03-27T04:53:18.889Z,9.97
2019-03-27T04:55:47.446Z,7.83
2019-03-27T04:58:16.104Z,9.27
2019-03-27T05:00:44.726Z,10.93
2019-03-27T05:03:13.349Z,30.70
2019-03-27T05:05:41.924Z,12.30
2019-03-27T05:08:10.551Z,10.23
2019-03-27T05:10:39.171Z,9.10
2019-03-27T05:13:07.830Z,8.23
2019-03-27T05:15:36.445Z,10.30
2019-03-27T05:18:05.068Z,10.50
2019-03-27T05:20:33.724Z,10.50
2019-03-27T05:23:02.280Z,4.10
2019-03-27T05:25:30.898Z,6.40
2019-03-27T05:27:59.566Z,7.80
2019-03-27T05:30:28.990Z,8.43
2019-03-27T05:32:57.907Z,9.50
2019-03-27T05:35:26.567Z,8.73
2019-03-27T05:37:55.488Z,6.17
2019-03-27T05:40:24.183Z,7.17
2019-03-27T05:43:00.468Z,5.67
2019-03-27T05:45:23.420Z,9.50
2019-03-27T05:47:59.568Z,5.87
2019-03-27T05:50:22.415Z,5.73
2019-03-27T05:52:51.049Z,5.67
2019-03-27T05:55:19.748Z,6.93
2019-03-27T05:57:48.616Z,4.77
2019-03-27T06:00:18.313Z,10.70
2019-03-27T06:02:46.946Z,6.40
2019-03-27T06:05:15.611Z,9.90
2019-03-27T06:07:44.166Z,5.70
2019-03-27T06:10:16.155Z,6.77
2019-03-27T06:12:43.265Z,6.70
2019-03-27T06:15:11.895Z,7.50
2019-03-27T06:17:40.527Z,6.20
2019-03-27T06:20:09.388Z,6.97
2019-03-27T06:22:37.940Z,6.57
2019-03-27T06:25:07.373Z,5.83
2019-03-27T06:27:36.031Z,5.90
2019-03-27T06:30:05.254Z,4.43
2019-03-27T06:32:33.878Z,5.47
2019-03-27T06:35:02.535Z,5.33
2019-03-27T06:37:31.156Z,8.13
2019-03-27T06:39:59.773Z,7.97
2019-03-27T06:42:28.291Z,6.17
2019-03-27T06:44:56.846Z,5.33
2019-03-27T06:47:25.467Z,3.30
2019-03-27T06:49:54.121Z,4.90
2019-03-27T06:52:22.734Z,7.23
2019-03-27T06:54:51.355Z,7.13
2019-03-27T06:57:19.954Z,5.37
2019-03-27T06:59:48.575Z,6.17
2019-03-27T07:02:17.185Z,7.23
2019-03-27T07:04:45.853Z,5.20
2019-03-27T07:07:14.487Z,4.33
2019-03-27T07:09:43.107Z,6.57
2019-03-27T07:12:21.082Z,2.67
2019-03-27T07:14:42.098Z,3.53
2019-03-27T07:17:10.713Z,5.50
2019-03-27T07:19:39.293Z,4.37
2019-03-27T07:22:07.987Z,3.60
2019-03-27T07:24:36.611Z,4.10
2019-03-27T07:27:05.266Z,2.73
2019-03-27T07:29:33.819Z,2.30
2019-03-27T07:32:02.441Z,3.83
2019-03-27T07:34:31.089Z,2.80
2019-03-27T07:36:59.640Z,3.77
2019-03-27T07:39:28.271Z,5.93
2019-03-27T07:41:57.020Z,3.13
2019-03-27T07:44:25.655Z,2.07
2019-03-27T07:46:54.284Z,2.57
2019-03-27T07:49:22.911Z,2.73
2019-03-27T07:51:51.534Z,3.23
2019-03-27T07:54:20.264Z,4.97
2019-03-27T07:56:48.888Z,2.63
2019-03-27T07:59:17.512Z,5.07
2019-03-27T08:01:46.170Z,3.40
2019-03-27T08:04:14.840Z,4.23
2019-03-27T08:06:43.412Z,4.27
2019-03-27T08:09:12.141Z,4.17
2019-03-27T08:11:40.938Z,6.80
2019-03-27T08:14:09.678Z,9.70
2019-03-27T08:16:38.318Z,2.80
2019-03-27T08:19:08.171Z,8.43
2019-03-27T08:21:36.951Z,4.33
2019-03-27T08:24:05.589Z,5.37
2019-03-27T08:26:34.209Z,4.60
2019-03-27T08:29:02.822Z,4.33
2019-03-27T08:31:31.486Z,4.80
2019-03-27T08:34:00.112Z,11.17
2019-03-27T08:36:28.730Z,3.83
2019-03-27T08:38:57.395Z,4.17
2019-03-27T08:41:26.027Z,7.53
2019-03-27T08:43:54.653Z,3.43
2019-03-27T08:46:23.404Z,3.80
2019-03-27T08:48:52.100Z,3.60
2019-03-27T08:51:20.723Z,6.70
2019-03-27T08:53:49.371Z,5.23
2019-03-27T08:56:18.007Z,3.00
2019-03-27T08:58:46.632Z,3.50
2019-03-27T09:01:15.277Z,3.20
2019-03-27T09:03:43.899Z,6.00
2019-03-27T09:06:12.527Z,6.60
2019-03-27T09:08:41.178Z,5.63
2019-03-27T09:11:09.798Z,6.73
2019-03-27T09:13:38.436Z,7.17
2019-03-27T09:16:07.092Z,3.90
2019-03-27T09:18:35.705Z,4.03
2019-03-27T09:21:04.345Z,27.87
2019-03-27T09:23:32.997Z,2.13
2019-03-27T09:26:01.624Z,4.10
2019-03-27T09:28:30.249Z,5.23
2019-03-27T09:30:58.903Z,4.03
2019-03-27T09:33:27.519Z,2.97
2019-03-27T09:35:56.195Z,4.20
2019-03-27T09:38:24.813Z,5.77
2019-03-27T09:40:53.437Z,4.63
2019-03-27T09:43:22.070Z,4.90
2019-03-27T09:45:50.719Z,3.67
2019-03-27T09:48:19.339Z,3.80
2019-03-27T09:50:47.984Z,4.27
2019-03-27T09:53:16.620Z,5.03
2019-03-27T09:55:45.241Z,2.27
2019-03-27T09:58:13.792Z,3.50
2019-03-27T10:00:51.185Z,2.37
2019-03-27T10:03:19.822Z,2.93
2019-03-27T10:05:48.363Z,5.43
2019-03-27T10:08:17.026Z,5.87
2019-03-27T10:10:45.638Z,2.83
2019-03-27T10:13:14.264Z,5.40
2019-03-27T10:15:42.924Z,2.57
2019-03-27T10:18:12.986Z,5.00
2019-03-27T10:20:41.619Z,5.67
2019-03-27T10:23:10.278Z,5.07
2019-03-27T10:25:38.913Z,5.17
2019-03-27T10:28:07.539Z,9.13
2019-03-27T10:30:36.219Z,6.77
2019-03-27T10:33:04.831Z,5.70
2019-03-27T10:35:33.466Z,5.30
2019-03-27T10:38:02.132Z,3.17
2019-03-27T10:40:30.760Z,3.37
2019-03-27T10:42:59.309Z,4.47
2019-03-27T10:45:27.950Z,3.93
2019-03-27T10:47:56.571Z,6.07
2019-03-27T10:50:25.189Z,5.10
2019-03-27T10:52:53.924Z,4.43
2019-03-27T10:55:22.559Z,5.40
2019-03-27T10:57:51.345Z,4.60
2019-03-27T11:00:20.027Z,3.17
2019-03-27T11:02:48.651Z,4.83
2019-03-27T11:05:17.338Z,3.00
2019-03-27T11:07:45.998Z,4.07
2019-03-27T11:10:14.934Z,3.27
2019-03-27T11:12:43.489Z,3.77
2019-03-27T11:15:12.544Z,6.73
2019-03-27T11:17:41.168Z,3.27
2019-03-27T11:20:11.526Z,3.30
2019-03-27T11:22:40.184Z,4.70
2019-03-27T11:25:09.311Z,3.83
2019-03-27T11:27:37.935Z,11.20
2019-03-27T11:30:09.726Z,3.23
2019-03-27T11:32:38.366Z,3.57
2019-03-27T11:35:07.187Z,3.23
2019-03-27T11:37:35.846Z,3.77
2019-03-27T11:40:05.766Z,5.43
2019-03-27T11:42:34.400Z,3.67
2019-03-27T11:45:03.347Z,4.90
2019-03-27T11:47:31.978Z,10.37
2019-03-27T11:50:00.615Z,2.83
2019-03-27T11:52:29.853Z,3.40
2019-03-27T11:54:58.585Z,2.67
2019-03-27T11:57:27.204Z,3.90
2019-03-27T11:59:55.801Z,4.13
2019-03-27T12:02:24.430Z,4.73
2019-03-27T12:04:53.062Z,5.27
2019-03-27T12:07:21.735Z,3.70
2019-03-27T12:09:50.361Z,4.77
2019-03-27T12:12:19.003Z,8.13
2019-03-27T12:14:47.666Z,4.33
2019-03-27T12:17:16.287Z,3.77
2019-03-27T12:19:44.911Z,4.70
2019-03-27T12:22:13.599Z,3.17
2019-03-27T12:24:42.216Z,7.43
2019-03-27T12:27:10.770Z,3.50
2019-03-27T12:29:39.462Z,3.23
2019-03-27T12:32:08.088Z,8.13
2019-03-27T12:34:37.110Z,5.43
2019-03-27T12:37:05.758Z,4.83
2019-03-27T12:39:34.396Z,4.83
2019-03-27T12:42:03.025Z,6.30
2019-03-27T12:44:31.681Z,3.10
2019-03-27T12:47:00.308Z,3.67
2019-03-27T12:49:28.932Z,7.43
2019-03-27T12:51:57.600Z,6.13
2019-03-27T12:54:26.225Z,3.93
2019-03-27T12:56:54.864Z,3.90
2019-03-27T12:59:23.523Z,3.60
2019-03-27T13:01:52.152Z,4.47
2019-03-27T13:04:20.780Z,4.00
2019-03-27T13:06:49.445Z,3.53
2019-03-27T13:09:18.067Z,5.40
2019-03-27T13:11:46.686Z,5.47
2019-03-27T13:14:15.350Z,2.90
2019-03-27T13:16:43.997Z,6.07
2019-03-27T13:19:12.614Z,4.70
2019-03-27T13:21:41.265Z,4.63
2019-03-27T13:24:09.890Z,3.63
2019-03-27T13:26:38.598Z,4.33
2019-03-27T13:29:07.267Z,3.77
2019-03-27T13:31:35.898Z,4.10
2019-03-27T13:34:04.522Z,5.83
2019-03-27T13:36:34.131Z,6.30
2019-03-27T13:39:02.830Z,7.37
2019-03-27T13:41:31.393Z,4.20
2019-03-27T13:44:00.132Z,3.67
2019-03-27T13:46:28.759Z,5.93
2019-03-27T13:48:57.411Z,5.30
2019-03-27T13:51:40.030Z,4.80
2019-03-27T13:53:57.354Z,4.67
2019-03-27T13:56:25.976Z,6.00
2019-03-27T13:58:54.638Z,3.97
2019-03-27T14:01:23.279Z,4.13
2019-03-27T14:03:51.910Z,4.07
2019-03-27T14:06:20.577Z,4.17
2019-03-27T14:08:49.199Z,3.57
2019-03-27T14:11:17.829Z,4.67
2019-03-27T14:13:46.583Z,4.33
2019-03-27T14:16:15.147Z,5.33
2019-03-27T14:18:43.695Z,4.40
2019-03-27T14:21:12.370Z,5.40
2019-03-27T14:23:41.009Z,4.50
2019-03-27T14:26:09.638Z,3.73
2019-03-27T14:28:38.322Z,6.10
2019-03-27T14:31:07.003Z,4.40
2019-03-27T14:33:35.640Z,4.63
2019-03-27T14:36:04.301Z,3.87
2019-03-27T14:38:32.925Z,2.83
2019-03-27T14:41:01.548Z,4.27
2019-03-27T14:43:30.210Z,5.23
2019-03-27T14:45:58.857Z,5.03
2019-03-27T14:48:27.483Z,4.43
2019-03-27T14:50:56.081Z,3.63
2019-03-27T14:53:24.710Z,6.47
2019-03-27T14:55:53.272Z,6.63
2019-03-27T14:58:22.654Z,6.00
2019-03-27T15:00:51.289Z,12.40
2019-03-27T15:03:19.912Z,3.77
2019-03-27T15:05:48.563Z,3.73
2019-03-27T15:08:17.209Z,5.37
2019-03-27T15:10:45.921Z,4.47
2019-03-27T15:13:15.463Z,5.43
2019-03-27T15:15:44.199Z,11.50
2019-03-27T15:18:12.758Z,4.33
2019-03-27T15:20:41.602Z,5.90
2019-03-27T15:23:10.205Z,5.73
2019-03-27T15:25:38.829Z,6.57
2019-03-27T15:28:07.498Z,4.40
2019-03-27T15:30:36.126Z,9.93
2019-03-27T15:33:04.756Z,4.27
2019-03-27T15:35:33.425Z,5.27
2019-03-27T15:38:02.053Z,4.90
2019-03-27T15:40:44.637Z,9.33
2019-03-27T15:43:13.357Z,7.13
2019-03-27T15:45:41.980Z,4.73
2019-03-27T15:48:10.653Z,4.73
2019-03-27T15:50:39.274Z,4.93
2019-03-27T15:53:08.499Z,4.93
2019-03-27T15:55:37.160Z,7.40
2019-03-27T15:58:05.862Z,3.73
2019-03-27T16:00:34.558Z,4.87
2019-03-27T16:03:03.232Z,12.00
2019-03-27T16:05:31.866Z,6.97
2019-03-27T16:08:00.480Z,5.80
2019-03-27T16:10:29.204Z,5.23
2019-03-27T16:12:57.829Z,5.73
2019-03-27T16:15:26.533Z,9.23
2019-03-27T16:17:55.210Z,5.00
2019-03-27T16:20:23.909Z,7.00
2019-03-27T16:22:52.533Z,5.00
2019-03-27T16:25:21.265Z,5.33
2019-03-27T16:27:49.892Z,5.63
2019-03-27T16:30:18.507Z,8.47
2019-03-27T16:32:47.181Z,7.90
2019-03-27T16:35:15.806Z,8.53
2019-03-27T16:37:44.429Z,10.77
2019-03-27T16:40:13.596Z,8.63
2019-03-27T16:42:42.215Z,6.93
2019-03-27T16:45:10.943Z,9.60
2019-03-27T16:47:39.611Z,11.30
2019-03-27T16:50:09.337Z,10.33
2019-03-27T16:52:37.894Z,8.87
2019-03-27T16:55:09.256Z,10.90
2019-03-27T16:57:37.874Z,8.47
2019-03-27T17:00:07.521Z,6.13
2019-03-27T17:02:36.262Z,8.53
2019-03-27T17:05:06.676Z,6.10
2019-03-27T17:07:35.290Z,8.63
2019-03-27T17:10:04.851Z,7.33
2019-03-27T17:12:33.476Z,7.87
2019-03-27T17:15:02.109Z,7.17
2019-03-27T17:17:30.773Z,7.83
2019-03-27T17:19:59.403Z,10.57
2019-03-27T17:22:28.024Z,10.73
2019-03-27T17:24:56.676Z,9.50
2019-03-27T17:27:25.383Z,11.80
2019-03-27T17:29:54.005Z,6.50
2019-03-27T17:32:22.668Z,7.17
2019-03-27T17:34:51.999Z,7.43
2019-03-27T17:37:20.807Z,8.77
2019-03-27T17:39:49.453Z,11.10
2019-03-27T17:42:18.012Z,11.30
2019-03-27T17:44:46.631Z,7.33
2019-03-27T17:47:16.622Z,10.60
2019-03-27T17:49:45.257Z,11.30
2019-03-27T17:52:13.905Z,9.37
2019-03-27T17:54:42.572Z,10.57
2019-03-27T17:57:11.196Z,9.17
2019-03-27T17:59:39.836Z,8.00
2019-03-27T18:02:08.561Z,9.73
2019-03-27T18:04:37.192Z,10.17
2019-03-27T18:07:05.633Z,9.30
2019-03-27T18:09:34.318Z,6.60
2019-03-27T18:12:03.115Z,12.43
2019-03-27T18:14:31.736Z,11.87
2019-03-27T18:17:00.401Z,11.40
2019-03-27T18:19:29.037Z,9.97
2019-03-27T18:22:07.728Z,10.67
2019-03-27T18:24:28.153Z,8.70
2019-03-27T18:26:56.817Z,7.67
2019-03-27T18:29:25.516Z,6.20
2019-03-27T18:31:54.182Z,9.10
2019-03-27T18:34:22.886Z,11.33
2019-03-27T18:36:51.596Z,8.30
2019-03-27T18:39:20.335Z,10.30
2019-03-27T18:41:48.963Z,9.50
2019-03-27T18:44:17.653Z,10.87
2019-03-27T18:46:46.378Z,10.87
2019-03-27T18:49:15.090Z,11.80
2019-03-27T18:51:43.783Z,9.27
2019-03-27T18:54:12.533Z,13.30
2019-03-27T18:56:41.229Z,12.63
2019-03-27T18:59:09.921Z,15.50
2019-03-27T19:01:38.675Z,11.73
2019-03-27T19:04:07.379Z,14.50
2019-03-27T19:06:36.093Z,11.33
2019-03-27T19:09:07.793Z,14.33
2019-03-27T19:11:36.497Z,12.80
2019-03-27T19:14:05.288Z,13.00
2019-03-27T19:16:34.023Z,9.40
2019-03-27T19:19:02.718Z,9.50
2019-03-27T19:21:31.426Z,10.97
2019-03-27T19:24:13.178Z,10.93
2019-03-27T19:26:30.526Z,12.47
2019-03-27T19:28:59.224Z,10.27
2019-03-27T19:31:27.971Z,15.33
2019-03-27T19:33:56.670Z,8.50
2019-03-27T19:36:25.371Z,12.03
2019-03-27T19:38:54.176Z,11.67
2019-03-27T19:41:23.143Z,8.17
2019-03-27T19:43:51.917Z,8.03
2019-03-27T19:46:20.571Z,8.13
2019-03-27T19:48:49.289Z,10.50
2019-03-27T19:51:17.982Z,9.63
2019-03-27T19:53:47.608Z,9.30
2019-03-27T19:56:16.311Z,10.30
2019-03-27T19:58:45.010Z,7.40
2019-03-27T20:01:13.734Z,9.43
2019-03-27T20:03:42.424Z,9.40
2019-03-27T20:06:11.128Z,11.83
2019-03-27T20:08:39.872Z,10.03
2019-03-27T20:11:08.568Z,8.57
2019-03-27T20:13:37.265Z,12.67
2019-03-27T20:16:06.018Z,14.67
2019-03-27T20:18:34.720Z,16.33
2019-03-27T20:21:03.417Z,20.50
2019-03-27T20:23:32.160Z,12.60
2019-03-27T20:26:00.859Z,12.17
2019-03-27T20:28:29.565Z,15.00
2019-03-27T20:30:58.242Z,13.30
2019-03-27T20:33:26.870Z,11.67
2019-03-27T20:35:55.572Z,14.47
2019-03-27T20:38:24.223Z,9.90
2019-03-27T20:40:52.854Z,11.63
2019-03-27T20:43:21.480Z,12.13
2019-03-27T20:45:50.149Z,42.23
2019-03-27T20:48:18.772Z,25.63
2019-03-27T20:50:47.773Z,27.83
2019-03-27T20:53:16.470Z,31.03
2019-03-27T20:55:45.168Z,21.73
2019-03-27T20:58:13.794Z,19.53
2019-03-27T21:00:42.448Z,16.43
2019-03-27T21:03:11.084Z,17.90
2019-03-27T21:05:39.711Z,40.40
2019-03-27T21:08:08.304Z,28.20
2019-03-27T21:10:36.935Z,27.17
2019-03-27T21:13:05.568Z,11.63
2019-03-27T21:15:34.250Z,24.20
2019-03-27T21:18:02.882Z,19.20
2019-03-27T21:20:31.504Z,23.20
2019-03-27T21:23:00.178Z,14.33
2019-03-27T21:25:28.809Z,15.60
2019-03-27T21:27:57.440Z,11.13
2019-03-27T21:30:26.095Z,12.97
2019-03-27T21:32:54.647Z,7.70
2019-03-27T21:35:23.272Z,9.87
2019-03-27T21:37:51.936Z,12.43
2019-03-27T21:40:20.554Z,8.13
2019-03-27T21:42:49.179Z,12.93
2019-03-27T21:45:17.841Z,6.30
2019-03-27T21:47:46.523Z,36.73
2019-03-27T21:50:15.150Z,25.70
2019-03-27T21:52:43.816Z,27.47
2019-03-27T21:55:22.440Z,26.97
2019-03-27T21:57:42.890Z,19.57
2019-03-27T22:00:12.044Z,22.40
2019-03-27T22:02:40.595Z,19.77
2019-03-27T22:05:09.230Z,13.27
2019-03-27T22:07:37.878Z,16.17
2019-03-27T22:10:07.995Z,9.67
2019-03-27T22:12:38.233Z,12.80
2019-03-27T22:15:08.571Z,16.70
2019-03-27T22:17:37.191Z,17.43
2019-03-27T22:20:07.509Z,10.37
2019-03-27T22:22:36.170Z,8.83
2019-03-27T22:25:07.259Z,8.20
2019-03-27T22:27:35.885Z,11.40
2019-03-27T22:30:08.250Z,14.07
2019-03-27T22:32:36.870Z,11.00
2019-03-27T22:35:06.894Z,9.80
2019-03-27T22:37:35.554Z,11.17
2019-03-27T22:40:07.114Z,8.97
2019-03-27T22:42:35.737Z,8.17
2019-03-27T22:45:05.502Z,8.70
2019-03-27T22:47:34.135Z,7.23
2019-03-27T22:50:02.945Z,6.07
2019-03-27T22:52:31.606Z,7.00
2019-03-27T22:55:00.389Z,10.93
2019-03-27T22:57:28.921Z,7.07
2019-03-27T22:59:57.529Z,7.90
2019-03-27T23:02:26.141Z,7.30
2019-03-27T23:04:54.763Z,9.47
2019-03-27T23:07:23.426Z,7.87
2019-03-27T23:09:52.042Z,7.20
2019-03-27T23:12:20.668Z,8.43
2019-03-27T23:14:49.340Z,10.23
2019-03-27T23:17:17.951Z,5.87
2019-03-27T23:19:46.573Z,6.43
2019-03-27T23:22:15.151Z,6.27
2019-03-27T23:24:43.707Z,5.73
2019-03-27T23:27:12.329Z,8.37
2019-03-27T23:29:40.985Z,6.90
2019-03-27T23:32:09.609Z,6.87
2019-03-27T23:34:38.309Z,5.37
2019-03-27T23:37:06.960Z,5.37
2019-03-27T23:39:35.575Z,6.33
2019-03-27T23:42:04.343Z,4.80
2019-03-27T23:44:32.925Z,9.03
2019-03-27T23:47:01.537Z,5.97
2019-03-27T23:49:30.173Z,3.97
2019-03-27T23:51:58.831Z,7.27
2019-03-27T23:54:27.585Z,5.47
2019-03-27T23:56:56.214Z,8.47
2019-03-27T23:59:24.864Z,6.50
